Terminal Aerodrome Forecast
Issued by NWS

Home | Current Version | Previous Version | Text Only | Print | Product List | Glossary On
Versions: 1 2 3 4 5 6 7 8 9 10 11 12 13 14 15 16 17 18 19 20 21 22
444
FTUS45 KTFX 042343
TAFCTB
TAF
KCTB 042343Z 0500/0524 33018KT P6SM SCT015 BKN030
      TEMPO 0500/0504 2SM -SN BR BKN015
     FM050400 35012KT 2SM -SN OVC010
     FM051200 34014KT P6SM OVC020 PROB30 0512/0518 4SM -SN OVC007
     FM051800 34011KT P6SM OVC025 PROB30 0518/0524 4SM -SN OVC015=

USA.gov is the U.S. government's official web portal to all federal, state and local government web resources and services.